sensor_id;sensor_type;location;lat;lon;timestamp;pressure;altitude;pressure_sealevel;temperature;humidity
69855;BME280;57146;48.140;16.304;2023-05-28T00:00:29;99660.31;;;13.58;56.61
69855;BME280;57146;48.140;16.304;2023-05-28T00:02:56;99662.34;;;13.52;56.48
69855;BME280;57146;48.140;16.304;2023-05-28T00:05:24;99653.28;;;13.45;56.29
69855;BME280;57146;48.140;16.304;2023-05-28T00:07:51;99656.25;;;13.43;57.35
69855;BME280;57146;48.140;16.304;2023-05-28T00:10:43;99648.16;;;13.39;57.11
69855;BME280;57146;48.140;16.304;2023-05-28T00:13:10;99645.34;;;13.27;57.30
69855;BME280;57146;48.140;16.304;2023-05-28T00:15:37;99646.75;;;13.25;57.33
69855;BME280;57146;48.140;16.304;2023-05-28T00:18:04;99647.47;;;13.16;57.05
69855;BME280;57146;48.140;16.304;2023-05-28T00:20:32;99648.25;;;13.17;57.44
69855;BME280;57146;48.140;16.304;2023-05-28T00:22:59;99650.72;;;13.13;57.61
69855;BME280;57146;48.140;16.304;2023-05-28T00:25:26;99653.81;;;13.15;57.53
69855;BME280;57146;48.140;16.304;2023-05-28T00:27:53;99641.09;;;13.17;57.70
69855;BME280;57146;48.140;16.304;2023-05-28T00:30:20;99635.31;;;13.15;58.03
69855;BME280;57146;48.140;16.304;2023-05-28T00:32:47;99639.38;;;13.13;58.36
69855;BME280;57146;48.140;16.304;2023-05-28T00:35:14;99636.09;;;13.07;58.42
69855;BME280;57146;48.140;16.304;2023-05-28T00:37:41;99637.91;;;12.98;58.48
69855;BME280;57146;48.140;16.304;2023-05-28T00:40:10;99635.88;;;12.86;59.10
69855;BME280;57146;48.140;16.304;2023-05-28T00:42:37;99631.19;;;12.83;58.85
69855;BME280;57146;48.140;16.304;2023-05-28T00:45:05;99633.50;;;12.76;58.92
69855;BME280;57146;48.140;16.304;2023-05-28T00:47:32;99623.69;;;12.68;59.34
69855;BME280;57146;48.140;16.304;2023-05-28T00:50:00;99629.09;;;12.63;59.18
69855;BME280;57146;48.140;16.304;2023-05-28T00:52:29;99626.47;;;12.63;59.55
69855;BME280;57146;48.140;16.304;2023-05-28T00:54:56;99621.78;;;12.60;59.36
69855;BME280;57146;48.140;16.304;2023-05-28T00:57:25;99622.38;;;12.57;59.74
69855;BME280;57146;48.140;16.304;2023-05-28T01:00:17;99618.19;;;12.56;60.11
69855;BME280;57146;48.140;16.304;2023-05-28T01:02:45;99619.25;;;12.55;59.55
69855;BME280;57146;48.140;16.304;2023-05-28T01:05:12;99613.81;;;12.51;59.72
69855;BME280;57146;48.140;16.304;2023-05-28T01:07:39;99608.53;;;12.51;59.49
69855;BME280;57146;48.140;16.304;2023-05-28T01:10:06;99611.66;;;12.53;59.70
69855;BME280;57146;48.140;16.304;2023-05-28T01:12:35;99606.97;;;12.50;59.31
69855;BME280;57146;48.140;16.304;2023-05-28T01:15:04;99604.63;;;12.49;59.58
69855;BME280;57146;48.140;16.304;2023-05-28T01:17:31;99607.09;;;12.45;60.27
69855;BME280;57146;48.140;16.304;2023-05-28T01:19:58;99604.59;;;12.40;60.06
69855;BME280;57146;48.140;16.304;2023-05-28T01:22:28;99602.88;;;12.35;60.70
69855;BME280;57146;48.140;16.304;2023-05-28T01:24:57;99600.47;;;12.25;61.42
69855;BME280;57146;48.140;16.304;2023-05-28T01:27:24;99604.66;;;12.26;61.33
69855;BME280;57146;48.140;16.304;2023-05-28T01:29:51;99600.91;;;12.18;61.28
69855;BME280;57146;48.140;16.304;2023-05-28T01:32:18;99604.91;;;12.16;61.32
69855;BME280;57146;48.140;16.304;2023-05-28T01:34:45;99602.59;;;12.14;61.83
69855;BME280;57146;48.140;16.304;2023-05-28T01:37:14;99601.63;;;12.10;62.51
69855;BME280;57146;48.140;16.304;2023-05-28T01:39:44;99599.41;;;12.04;62.65
69855;BME280;57146;48.140;16.304;2023-05-28T01:42:13;99589.78;;;11.99;62.32
69855;BME280;57146;48.140;16.304;2023-05-28T01:44:41;99598.88;;;11.93;62.05
69855;BME280;57146;48.140;16.304;2023-05-28T01:47:11;99590.28;;;11.87;62.05
69855;BME280;57146;48.140;16.304;2023-05-28T01:49:41;99596.75;;;11.81;62.38
69855;BME280;57146;48.140;16.304;2023-05-28T01:52:09;99581.91;;;11.85;62.36
69855;BME280;57146;48.140;16.304;2023-05-28T01:54:43;99577.59;;;11.89;62.59
69855;BME280;57146;48.140;16.304;2023-05-28T01:57:10;99577.88;;;11.88;62.49
69855;BME280;57146;48.140;16.304;2023-05-28T01:59:40;99578.59;;;11.80;62.73
69855;BME280;57146;48.140;16.304;2023-05-28T02:02:10;99577.50;;;11.81;62.48
69855;BME280;57146;48.140;16.304;2023-05-28T02:04:38;99575.88;;;11.85;62.73
69855;BME280;57146;48.140;16.304;2023-05-28T02:07:05;99584.03;;;11.83;62.73
69855;BME280;57146;48.140;16.304;2023-05-28T02:09:33;99580.13;;;11.81;62.70
69855;BME280;57146;48.140;16.304;2023-05-28T02:12:02;99581.22;;;11.80;62.77
69855;BME280;57146;48.140;16.304;2023-05-28T02:14:30;99588.19;;;11.75;62.81
69855;BME280;57146;48.140;16.304;2023-05-28T02:16:57;99579.50;;;11.75;62.63
69855;BME280;57146;48.140;16.304;2023-05-28T02:19:24;99589.69;;;11.68;62.63
69855;BME280;57146;48.140;16.304;2023-05-28T02:21:52;99589.00;;;11.62;62.51
69855;BME280;57146;48.140;16.304;2023-05-28T02:24:43;99587.22;;;11.71;62.96
69855;BME280;57146;48.140;16.304;2023-05-28T02:27:11;99590.31;;;11.73;62.97
69855;BME280;57146;48.140;16.304;2023-05-28T02:29:42;99592.97;;;11.73;62.58
69855;BME280;57146;48.140;16.304;2023-05-28T02:32:09;99585.34;;;11.72;63.24
69855;BME280;57146;48.140;16.304;2023-05-28T02:34:36;99598.84;;;11.70;63.58
69855;BME280;57146;48.140;16.304;2023-05-28T02:37:03;99594.00;;;11.64;62.89
69855;BME280;57146;48.140;16.304;2023-05-28T02:39:32;99591.63;;;11.62;63.24
69855;BME280;57146;48.140;16.304;2023-05-28T02:41:59;99585.91;;;11.60;62.88
69855;BME280;57146;48.140;16.304;2023-05-28T02:44:26;99595.16;;;11.58;63.25
69855;BME280;57146;48.140;16.304;2023-05-28T02:46:53;99594.09;;;11.59;63.16
69855;BME280;57146;48.140;16.304;2023-05-28T02:49:20;99600.44;;;11.58;63.25
69855;BME280;57146;48.140;16.304;2023-05-28T02:51:48;99600.25;;;11.54;63.66
69855;BME280;57146;48.140;16.304;2023-05-28T02:54:25;99600.25;;;11.54;63.40
69855;BME280;57146;48.140;16.304;2023-05-28T02:56:52;99601.16;;;11.49;63.55
69855;BME280;57146;48.140;16.304;2023-05-28T02:59:19;99598.81;;;11.48;64.34
69855;BME280;57146;48.140;16.304;2023-05-28T03:01:47;99600.16;;;11.45;63.95
69855;BME280;57146;48.140;16.304;2023-05-28T03:04:15;99591.66;;;11.48;63.95
69855;BME280;57146;48.140;16.304;2023-05-28T03:06:48;99603.50;;;11.51;64.20
69855;BME280;57146;48.140;16.304;2023-05-28T03:09:16;99604.06;;;11.48;64.17
69855;BME280;57146;48.140;16.304;2023-05-28T03:11:43;99595.38;;;11.47;64.07
69855;BME280;57146;48.140;16.304;2023-05-28T03:14:11;99611.03;;;11.44;63.98
69855;BME280;57146;48.140;16.304;2023-05-28T03:16:39;99608.78;;;11.37;64.59
69855;BME280;57146;48.140;16.304;2023-05-28T03:19:15;99602.75;;;11.37;64.57
69855;BME280;57146;48.140;16.304;2023-05-28T03:21:42;99611.41;;;11.37;64.24
69855;BME280;57146;48.140;16.304;2023-05-28T03:24:11;99607.22;;;11.36;64.57
69855;BME280;57146;48.140;16.304;2023-05-28T03:26:45;99610.16;;;11.35;64.52
69855;BME280;57146;48.140;16.304;2023-05-28T03:29:16;99614.19;;;11.32;64.91
69855;BME280;57146;48.140;16.304;2023-05-28T03:31:58;99618.38;;;11.33;64.69
69855;BME280;57146;48.140;16.304;2023-05-28T03:34:26;99608.31;;;11.35;65.22
69855;BME280;57146;48.140;16.304;2023-05-28T03:36:53;99609.38;;;11.34;65.22
69855;BME280;57146;48.140;16.304;2023-05-28T03:39:21;99603.81;;;11.36;65.12
69855;BME280;57146;48.140;16.304;2023-05-28T03:41:51;99604.41;;;11.33;64.82
69855;BME280;57146;48.140;16.304;2023-05-28T03:44:20;99606.28;;;11.32;64.95
69855;BME280;57146;48.140;16.304;2023-05-28T03:46:51;99603.81;;;11.36;65.41
69855;BME280;57146;48.140;16.304;2023-05-28T03:49:18;99600.78;;;11.42;65.09
69855;BME280;57146;48.140;16.304;2023-05-28T03:51:45;99601.84;;;11.41;64.85
69855;BME280;57146;48.140;16.304;2023-05-28T03:54:12;99597.97;;;11.39;65.50
69855;BME280;57146;48.140;16.304;2023-05-28T03:56:39;99600.47;;;11.44;65.02
69855;BME280;57146;48.140;16.304;2023-05-28T03:59:07;99600.34;;;11.49;65.00
69855;BME280;57146;48.140;16.304;2023-05-28T04:01:34;99596.66;;;11.50;64.51
69855;BME280;57146;48.140;16.304;2023-05-28T04:04:01;99604.94;;;11.57;64.99
69855;BME280;57146;48.140;16.304;2023-05-28T04:06:30;99595.66;;;11.60;64.64
69855;BME280;57146;48.140;16.304;2023-05-28T04:09:01;99598.34;;;11.68;64.02
69855;BME280;57146;48.140;16.304;2023-05-28T04:11:29;99595.13;;;11.71;64.46
69855;BME280;57146;48.140;16.304;2023-05-28T04:14:20;99592.38;;;11.77;63.87
69855;BME280;57146;48.140;16.304;2023-05-28T04:16:48;99584.34;;;11.82;63.75
69855;BME280;57146;48.140;16.304;2023-05-28T04:19:15;99581.31;;;11.88;64.39
69855;BME280;57146;48.140;16.304;2023-05-28T04:21:42;99590.38;;;11.96;64.58
69855;BME280;57146;48.140;16.304;2023-05-28T04:24:11;99592.09;;;12.01;64.34
69855;BME280;57146;48.140;16.304;2023-05-28T04:26:38;99586.22;;;12.04;64.53
69855;BME280;57146;48.140;16.304;2023-05-28T04:29:05;99588.44;;;12.10;64.67
69855;BME280;57146;48.140;16.304;2023-05-28T04:31:34;99597.91;;;12.11;64.41
69855;BME280;57146;48.140;16.304;2023-05-28T04:34:05;99597.50;;;12.18;63.72
69855;BME280;57146;48.140;16.304;2023-05-28T04:36:31;99605.59;;;12.21;63.67
69855;BME280;57146;48.140;16.304;2023-05-28T04:39:00;99610.72;;;12.27;63.12
69855;BME280;57146;48.140;16.304;2023-05-28T04:41:28;99603.66;;;12.36;64.16
69855;BME280;57146;48.140;16.304;2023-05-28T04:43:56;99603.66;;;12.36;62.34
69855;BME280;57146;48.140;16.304;2023-05-28T04:46:24;99597.28;;;12.37;62.12
69855;BME280;57146;48.140;16.304;2023-05-28T04:49:18;99605.97;;;12.37;62.30
69855;BME280;57146;48.140;16.304;2023-05-28T04:51:45;99605.06;;;12.42;62.04
69855;BME280;57146;48.140;16.304;2023-05-28T04:54:12;99611.31;;;12.46;62.14
69855;BME280;57146;48.140;16.304;2023-05-28T04:56:41;99604.63;;;12.49;61.96
69855;BME280;57146;48.140;16.304;2023-05-28T04:59:08;99606.06;;;12.55;61.91
69855;BME280;57146;48.140;16.304;2023-05-28T05:01:35;99597.69;;;12.61;62.52
69855;BME280;57146;48.140;16.304;2023-05-28T05:04:05;99598.22;;;12.72;62.59
69855;BME280;57146;48.140;16.304;2023-05-28T05:06:33;99608.94;;;12.76;62.67
69855;BME280;57146;48.140;16.304;2023-05-28T05:08:59;99609.28;;;12.83;62.52
69855;BME280;57146;48.140;16.304;2023-05-28T05:11:26;99608.06;;;12.89;61.85
69855;BME280;57146;48.140;16.304;2023-05-28T05:13:54;99607.91;;;12.94;61.54
69855;BME280;57146;48.140;16.304;2023-05-28T05:16:21;99605.91;;;13.00;59.89
69855;BME280;57146;48.140;16.304;2023-05-28T05:18:48;99603.13;;;13.05;59.43
69855;BME280;57146;48.140;16.304;2023-05-28T05:21:15;99599.75;;;13.13;59.84
69855;BME280;57146;48.140;16.304;2023-05-28T05:23:42;99605.19;;;13.16;59.01
69855;BME280;57146;48.140;16.304;2023-05-28T05:26:09;99604.25;;;13.21;58.31
69855;BME280;57146;48.140;16.304;2023-05-28T05:28:40;99602.25;;;13.27;59.17
69855;BME280;57146;48.140;16.304;2023-05-28T05:31:07;99600.25;;;13.32;58.73
69855;BME280;57146;48.140;16.304;2023-05-28T05:33:35;99600.41;;;13.36;58.16
69855;BME280;57146;48.140;16.304;2023-05-28T05:36:11;99594.66;;;13.43;58.21
69855;BME280;57146;48.140;16.304;2023-05-28T05:38:56;99590.47;;;13.59;57.58
69855;BME280;57146;48.140;16.304;2023-05-28T05:41:32;99588.75;;;13.72;56.95
69855;BME280;57146;48.140;16.304;2023-05-28T05:44:18;99589.69;;;13.84;57.09
69855;BME280;57146;48.140;16.304;2023-05-28T05:46:46;99591.53;;;13.93;55.91
69855;BME280;57146;48.140;16.304;2023-05-28T05:49:14;99592.47;;;14.05;55.70
69855;BME280;57146;48.140;16.304;2023-05-28T05:51:44;99584.97;;;14.07;55.52
69855;BME280;57146;48.140;16.304;2023-05-28T05:54:11;99590.25;;;14.07;55.23
69855;BME280;57146;48.140;16.304;2023-05-28T05:56:39;99593.38;;;14.09;54.92
69855;BME280;57146;48.140;16.304;2023-05-28T05:59:17;99589.16;;;14.08;54.92
69855;BME280;57146;48.140;16.304;2023-05-28T06:01:45;99584.97;;;14.16;55.36
69855;BME280;57146;48.140;16.304;2023-05-28T06:04:17;99589.91;;;14.35;55.19
69855;BME280;57146;48.140;16.304;2023-05-28T06:07:02;99589.22;;;14.47;54.74
69855;BME280;57146;48.140;16.304;2023-05-28T06:10:08;99583.13;;;14.64;53.77
69855;BME280;57146;48.140;16.304;2023-05-28T06:12:36;99587.16;;;14.70;54.31
69855;BME280;57146;48.140;16.304;2023-05-28T06:15:05;99587.19;;;14.91;55.30
69855;BME280;57146;48.140;16.304;2023-05-28T06:17:35;99582.91;;;14.77;52.83
69855;BME280;57146;48.140;16.304;2023-05-28T06:20:03;99592.72;;;14.77;52.62
69855;BME280;57146;48.140;16.304;2023-05-28T06:22:35;99588.91;;;14.87;52.95
69855;BME280;57146;48.140;16.304;2023-05-28T06:25:03;99591.19;;;14.97;52.82
69855;BME280;57146;48.140;16.304;2023-05-28T06:27:55;99593.97;;;15.09;52.83
69855;BME280;57146;48.140;16.304;2023-05-28T06:30:23;99588.63;;;14.88;52.40
69855;BME280;57146;48.140;16.304;2023-05-28T06:33:15;99598.94;;;14.81;52.43
69855;BME280;57146;48.140;16.304;2023-05-28T06:35:44;99584.41;;;14.87;52.18
69855;BME280;57146;48.140;16.304;2023-05-28T06:38:11;99597.19;;;15.15;52.50
69855;BME280;57146;48.140;16.304;2023-05-28T06:40:39;99596.94;;;15.49;53.43
69855;BME280;57146;48.140;16.304;2023-05-28T06:43:07;99592.78;;;15.69;53.29
69855;BME280;57146;48.140;16.304;2023-05-28T06:45:58;99596.59;;;15.93;53.87
69855;BME280;57146;48.140;16.304;2023-05-28T06:48:26;99594.72;;;15.93;50.46
69855;BME280;57146;48.140;16.304;2023-05-28T06:50:53;99594.66;;;16.02;50.71
69855;BME280;57146;48.140;16.304;2023-05-28T06:53:19;99597.44;;;16.06;50.40
69855;BME280;57146;48.140;16.304;2023-05-28T06:55:48;99591.72;;;16.28;52.04
69855;BME280;57146;48.140;16.304;2023-05-28T06:58:33;99591.28;;;16.38;50.13
69855;BME280;57146;48.140;16.304;2023-05-28T07:01:18;99593.75;;;16.56;51.01
69855;BME280;57146;48.140;16.304;2023-05-28T07:04:02;99592.75;;;16.48;49.10
69855;BME280;57146;48.140;16.304;2023-05-28T07:06:50;99587.34;;;16.69;50.40
69855;BME280;57146;48.140;16.304;2023-05-28T07:09:30;99586.34;;;16.86;49.74
69855;BME280;57146;48.140;16.304;2023-05-28T07:11:59;99592.69;;;16.93;50.78
69855;BME280;57146;48.140;16.304;2023-05-28T07:14:27;99591.53;;;17.07;48.60
69855;BME280;57146;48.140;16.304;2023-05-28T07:16:54;99594.22;;;17.07;49.41
69855;BME280;57146;48.140;16.304;2023-05-28T07:19:21;99590.31;;;17.16;48.99
69855;BME280;57146;48.140;16.304;2023-05-28T07:21:49;99582.19;;;17.25;48.91
69855;BME280;57146;48.140;16.304;2023-05-28T07:24:17;99584.63;;;17.30;47.31
69855;BME280;57146;48.140;16.304;2023-05-28T07:27:09;99593.25;;;17.39;47.61
69855;BME280;57146;48.140;16.304;2023-05-28T07:29:41;99584.69;;;17.46;46.90
69855;BME280;57146;48.140;16.304;2023-05-28T07:32:11;99588.63;;;17.36;47.15
69855;BME280;57146;48.140;16.304;2023-05-28T07:35:06;99584.84;;;17.37;46.78
69855;BME280;57146;48.140;16.304;2023-05-28T07:37:33;99590.97;;;17.26;47.01
69855;BME280;57146;48.140;16.304;2023-05-28T07:40:01;99589.72;;;17.35;48.34
69855;BME280;57146;48.140;16.304;2023-05-28T07:42:29;99586.75;;;17.37;46.97
69855;BME280;57146;48.140;16.304;2023-05-28T07:45:01;99588.53;;;17.33;47.39
69855;BME280;57146;48.140;16.304;2023-05-28T07:47:29;99586.16;;;17.43;48.32
69855;BME280;57146;48.140;16.304;2023-05-28T07:50:30;99583.66;;;17.22;47.79
69855;BME280;57146;48.140;16.304;2023-05-28T07:53:11;99582.94;;;17.38;47.62
69855;BME280;57146;48.140;16.304;2023-05-28T07:55:39;99583.41;;;17.40;49.01
69855;BME280;57146;48.140;16.304;2023-05-28T07:58:13;99580.34;;;17.54;48.79
69855;BME280;57146;48.140;16.304;2023-05-28T08:00:41;99575.31;;;17.77;47.56
69855;BME280;57146;48.140;16.304;2023-05-28T08:03:09;99577.56;;;17.90;46.89
69855;BME280;57146;48.140;16.304;2023-05-28T08:05:39;99575.78;;;17.94;47.08
69855;BME280;57146;48.140;16.304;2023-05-28T08:08:06;99577.41;;;17.99;46.20
69855;BME280;57146;48.140;16.304;2023-05-28T08:10:35;99574.59;;;18.08;46.62
69855;BME280;57146;48.140;16.304;2023-05-28T08:13:04;99569.34;;;18.11;46.09
69855;BME280;57146;48.140;16.304;2023-05-28T08:15:31;99572.53;;;18.17;46.25
69855;BME280;57146;48.140;16.304;2023-05-28T08:17:59;99565.75;;;18.19;46.85
69855;BME280;57146;48.140;16.304;2023-05-28T08:20:29;99566.88;;;18.34;46.02
69855;BME280;57146;48.140;16.304;2023-05-28T08:23:04;99565.50;;;18.40;45.50
69855;BME280;57146;48.140;16.304;2023-05-28T08:25:32;99557.91;;;18.42;44.84
69855;BME280;57146;48.140;16.304;2023-05-28T08:28:07;99558.81;;;18.47;44.72
69855;BME280;57146;48.140;16.304;2023-05-28T08:30:35;99553.28;;;18.55;45.17
69855;BME280;57146;48.140;16.304;2023-05-28T08:33:16;99550.69;;;18.59;45.30
69855;BME280;57146;48.140;16.304;2023-05-28T08:35:44;99552.59;;;18.74;47.05
69855;BME280;57146;48.140;16.304;2023-05-28T08:38:11;99549.13;;;18.89;46.07
69855;BME280;57146;48.140;16.304;2023-05-28T08:40:54;99554.19;;;18.95;45.86
69855;BME280;57146;48.140;16.304;2023-05-28T08:43:27;99544.28;;;18.95;46.27
69855;BME280;57146;48.140;16.304;2023-05-28T08:45:55;99533.69;;;18.99;46.66
69855;BME280;57146;48.140;16.304;2023-05-28T08:48:34;99550.69;;;18.75;46.10
69855;BME280;57146;48.140;16.304;2023-05-28T08:51:02;99538.56;;;18.77;46.11
69855;BME280;57146;48.140;16.304;2023-05-28T08:53:39;99540.53;;;18.80;46.06
69855;BME280;57146;48.140;16.304;2023-05-28T08:56:09;99546.03;;;18.87;45.88
69855;BME280;57146;48.140;16.304;2023-05-28T08:58:38;99543.66;;;19.02;46.90
69855;BME280;57146;48.140;16.304;2023-05-28T09:01:10;99544.09;;;19.04;46.88
69855;BME280;57146;48.140;16.304;2023-05-28T09:03:42;99533.56;;;19.11;46.41
69855;BME280;57146;48.140;16.304;2023-05-28T09:06:16;99541.22;;;19.12;46.66
69855;BME280;57146;48.140;16.304;2023-05-28T09:08:44;99533.88;;;19.25;47.03
69855;BME280;57146;48.140;16.304;2023-05-28T09:11:18;99535.44;;;19.49;47.07
69855;BME280;57146;48.140;16.304;2023-05-28T09:13:48;99534.78;;;19.72;44.97
69855;BME280;57146;48.140;16.304;2023-05-28T09:16:23;99528.44;;;19.80;46.29
69855;BME280;57146;48.140;16.304;2023-05-28T09:19:04;99520.31;;;19.96;46.30
69855;BME280;57146;48.140;16.304;2023-05-28T09:21:32;99516.75;;;20.11;44.66
69855;BME280;57146;48.140;16.304;2023-05-28T09:24:03;99517.09;;;20.09;45.55
69855;BME280;57146;48.140;16.304;2023-05-28T09:27:00;99511.47;;;20.15;44.96
69855;BME280;57146;48.140;16.304;2023-05-28T09:29:32;99508.13;;;20.21;47.50
69855;BME280;57146;48.140;16.304;2023-05-28T09:32:00;99515.50;;;20.28;45.51
69855;BME280;57146;48.140;16.304;2023-05-28T09:34:31;99516.75;;;20.11;45.03
69855;BME280;57146;48.140;16.304;2023-05-28T09:37:03;99515.00;;;20.22;44.11
69855;BME280;57146;48.140;16.304;2023-05-28T09:39:31;99509.25;;;19.97;44.34
69855;BME280;57146;48.140;16.304;2023-05-28T09:42:03;99505.88;;;20.00;45.06
69855;BME280;57146;48.140;16.304;2023-05-28T09:44:31;99511.47;;;20.15;45.30
69855;BME280;57146;48.140;16.304;2023-05-28T09:46:58;99503.72;;;20.32;44.83
69855;BME280;57146;48.140;16.304;2023-05-28T09:49:29;99506.06;;;20.38;44.83
69855;BME280;57146;48.140;16.304;2023-05-28T09:51:57;99503.25;;;20.50;44.11
69855;BME280;57146;48.140;16.304;2023-05-28T09:54:29;99501.03;;;20.32;44.83
69855;BME280;57146;48.140;16.304;2023-05-28T09:56:58;99505.09;;;20.23;44.91
69855;BME280;57146;48.140;16.304;2023-05-28T09:59:26;99505.22;;;20.07;44.24
69855;BME280;57146;48.140;16.304;2023-05-28T10:03:13;99505.91;;;20.27;44.78
69855;BME280;57146;48.140;16.304;2023-05-28T10:05:16;99508.84;;;20.18;44.56
69855;BME280;57146;48.140;16.304;2023-05-28T10:07:48;99500.28;;;20.32;46.21
69855;BME280;57146;48.140;16.304;2023-05-28T10:10:18;99487.69;;;20.32;44.73
69855;BME280;57146;48.140;16.304;2023-05-28T10:12:47;99490.94;;;20.49;46.29
69855;BME280;57146;48.140;16.304;2023-05-28T10:15:17;99492.41;;;20.43;44.01
69855;BME280;57146;48.140;16.304;2023-05-28T10:17:44;99483.09;;;20.33;45.13
69855;BME280;57146;48.140;16.304;2023-05-28T10:20:11;99488.50;;;20.37;44.99
69855;BME280;57146;48.140;16.304;2023-05-28T10:22:39;99493.03;;;20.32;44.42
69855;BME280;57146;48.140;16.304;2023-05-28T10:25:08;99489.69;;;20.39;44.26
69855;BME280;57146;48.140;16.304;2023-05-28T10:27:37;99481.00;;;20.46;44.38
69855;BME280;57146;48.140;16.304;2023-05-28T10:30:09;99483.91;;;20.60;45.25
69855;BME280;57146;48.140;16.304;2023-05-28T10:32:40;99475.56;;;20.65;43.73
69855;BME280;57146;48.140;16.304;2023-05-28T10:35:11;99476.91;;;20.52;44.04
69855;BME280;57146;48.140;16.304;2023-05-28T10:37:39;99480.09;;;20.61;45.40
69855;BME280;57146;48.140;16.304;2023-05-28T10:40:08;99474.47;;;20.70;44.12
69855;BME280;57146;48.140;16.304;2023-05-28T10:42:39;99469.16;;;20.73;43.74
69855;BME280;57146;48.140;16.304;2023-05-28T10:45:07;99469.25;;;20.80;44.35
69855;BME280;57146;48.140;16.304;2023-05-28T10:47:36;99474.25;;;20.82;44.19
69855;BME280;57146;48.140;16.304;2023-05-28T10:50:17;99478.31;;;20.72;44.76
69855;BME280;57146;48.140;16.304;2023-05-28T10:56:00;99473.84;;;20.80;44.61
69855;BME280;57146;48.140;16.304;2023-05-28T10:58:33;99470.41;;;20.79;43.72
69855;BME280;57146;48.140;16.304;2023-05-28T11:01:20;99461.81;;;20.67;45.33
69855;BME280;57146;48.140;16.304;2023-05-28T11:03:54;99460.59;;;20.61;43.52
69855;BME280;57146;48.140;16.304;2023-05-28T11:06:24;99462.69;;;20.74;44.18
69855;BME280;57146;48.140;16.304;2023-05-28T11:08:51;99466.19;;;20.78;43.37
69855;BME280;57146;48.140;16.304;2023-05-28T11:11:18;99457.09;;;20.87;43.00
69855;BME280;57146;48.140;16.304;2023-05-28T11:13:46;99467.84;;;20.90;44.81
69855;BME280;57146;48.140;16.304;2023-05-28T11:16:18;99461.81;;;20.97;43.43
69855;BME280;57146;48.140;16.304;2023-05-28T11:18:59;99467.97;;;21.01;43.27
69855;BME280;57146;48.140;16.304;2023-05-28T11:21:26;99465.22;;;20.94;42.57
69855;BME280;57146;48.140;16.304;2023-05-28T11:24:04;99465.50;;;20.85;42.95
69855;BME280;57146;48.140;16.304;2023-05-28T11:26:31;99457.69;;;21.03;43.13
69855;BME280;57146;48.140;16.304;2023-05-28T11:28:59;99457.00;;;21.10;43.21
69855;BME280;57146;48.140;16.304;2023-05-28T11:31:26;99452.72;;;21.05;42.93
69855;BME280;57146;48.140;16.304;2023-05-28T11:33:56;99452.09;;;21.15;42.59
69855;BME280;57146;48.140;16.304;2023-05-28T11:36:23;99446.38;;;21.17;42.21
69855;BME280;57146;48.140;16.304;2023-05-28T11:39:03;99441.88;;;21.24;43.33
69855;BME280;57146;48.140;16.304;2023-05-28T11:41:31;99439.47;;;21.16;41.45
69855;BME280;57146;48.140;16.304;2023-05-28T11:43:58;99441.09;;;21.24;41.19
69855;BME280;57146;48.140;16.304;2023-05-28T11:46:25;99437.94;;;21.15;41.12
69855;BME280;57146;48.140;16.304;2023-05-28T11:48:52;99432.91;;;21.10;41.42
69855;BME280;57146;48.140;16.304;2023-05-28T11:51:19;99437.94;;;21.15;43.25
69855;BME280;57146;48.140;16.304;2023-05-28T11:53:46;99426.53;;;21.21;43.47
69855;BME280;57146;48.140;16.304;2023-05-28T11:56:14;99435.78;;;21.27;43.75
69855;BME280;57146;48.140;16.304;2023-05-28T11:58:45;99434.38;;;21.41;43.39
69855;BME280;57146;48.140;16.304;2023-05-28T12:01:13;99432.31;;;21.27;42.53
69855;BME280;57146;48.140;16.304;2023-05-28T12:03:40;99441.63;;;21.37;42.72
69855;BME280;57146;48.140;16.304;2023-05-28T12:06:07;99425.47;;;21.29;42.35
69855;BME280;57146;48.140;16.304;2023-05-28T12:08:38;99421.81;;;21.45;42.70
69855;BME280;57146;48.140;16.304;2023-05-28T12:11:07;99429.50;;;21.50;42.17
69855;BME280;57146;48.140;16.304;2023-05-28T12:13:36;99432.59;;;21.52;42.36
69855;BME280;57146;48.140;16.304;2023-05-28T12:16:10;99427.94;;;21.45;43.41
69855;BME280;57146;48.140;16.304;2023-05-28T12:18:42;99418.81;;;21.50;42.96
69855;BME280;57146;48.140;16.304;2023-05-28T12:21:15;99418.16;;;21.64;42.05
69855;BME280;57146;48.140;16.304;2023-05-28T12:23:44;99417.06;;;21.72;43.95
69855;BME280;57146;48.140;16.304;2023-05-28T12:26:14;99415.22;;;21.80;43.35
69855;BME280;57146;48.140;16.304;2023-05-28T12:28:42;99415.63;;;21.82;41.98
69855;BME280;57146;48.140;16.304;2023-05-28T12:31:09;99416.72;;;21.77;42.46
69855;BME280;57146;48.140;16.304;2023-05-28T12:33:36;99417.56;;;21.85;42.37
69855;BME280;57146;48.140;16.304;2023-05-28T12:36:03;99415.94;;;21.76;41.40
69855;BME280;57146;48.140;16.304;2023-05-28T12:38:30;99414.38;;;21.68;41.66
69855;BME280;57146;48.140;16.304;2023-05-28T12:40:57;99413.59;;;21.68;41.29
69855;BME280;57146;48.140;16.304;2023-05-28T12:43:24;99408.66;;;21.73;41.13
69855;BME280;57146;48.140;16.304;2023-05-28T12:45:51;99414.09;;;21.84;40.81
69855;BME280;57146;48.140;16.304;2023-05-28T12:48:18;99406.78;;;21.78;41.42
69855;BME280;57146;48.140;16.304;2023-05-28T12:50:45;99406.97;;;22.03;41.00
69855;BME280;57146;48.140;16.304;2023-05-28T12:53:12;99398.53;;;22.04;40.27
69855;BME280;57146;48.140;16.304;2023-05-28T12:55:39;99396.25;;;22.03;42.00
69855;BME280;57146;48.140;16.304;2023-05-28T12:58:09;99387.44;;;22.02;41.37
69855;BME280;57146;48.140;16.304;2023-05-28T13:00:36;99387.81;;;22.00;41.58
69855;BME280;57146;48.140;16.304;2023-05-28T13:03:03;99393.56;;;21.99;41.96
69855;BME280;57146;48.140;16.304;2023-05-28T13:05:31;99387.44;;;22.02;40.16
69855;BME280;57146;48.140;16.304;2023-05-28T13:07:59;99387.03;;;22.00;42.14
69855;BME280;57146;48.140;16.304;2023-05-28T13:10:27;99388.97;;;21.99;41.42